Bentonville (XNA/KXNA)

Map

Destinations

Information

Location
Bentonville, AR
Local Time
15:31 / 3:31 pm
GMT Time
20:31 / 8:31 pm
Gates
Unassigned
No FAA reported delays
METAR KXNA 231953Z 31014G21KT 10SM CLR 19/07 A3001 RMK AO2 SLP160 T01940072
TAF KXNA 231720Z 2318/2418 24013KT P6SM SCT250 FM232000 31015G24KT P6SM SCT250 FM240100 31009KT P6SM SKC FM241500 31015G23KT P6SM SCT250